Dzaoudzi, Comoros
Current Conditions -  °F | °C
As of 5:00 PM on Friday 31 Oct 2014 (Local Time) from FMCZ Reporting Station
Few Clouds Few Clouds  
Wind Chill: 29°   Ceiling: Unl
Heat Index: 33°   Visibility: 6mi
Dew Point: 23°   Wind: 12mph
Humidity: 70%   Direction: 50°NE
Pressure: 29.91"   Gusts: NA
Location:  12.8°S, 45.28°E
Report Text: FMCZ 311400Z 05010KT 030V090 9999 FEW022 29/23 Q1013 NOSIG
Loading
Personal Weather Stations






























Interactive Weather Map
Tropical Storm Tracking
New forecast layout! Learn more

10-Day Weather Forecast

Advertisements
Track Severe Weather on mobile